Time;durP1;ratioP1;P1;durP2;ratioP2;P2;SDS_P1;SDS_P2;PMS_P1;PMS_P2;Temp;Humidity;BMP_temperature;BMP_pressure;BME280_temperature;BME280_humidity;BME280_pressure;Samples;Min_cycle;Max_cycle;Signal;HPM_P1;HPM_P2
2021/12/27 00:00:42;;;;;;;15.57;8.13;;;;;;;7.08;59.35;100192.09;4955916;28;123500;-68
2021/12/27 00:03:10;;;;;;;14.13;7.22;;;;;;;7.08;59.46;100189.47;4953546;28;123743;-68
2021/12/27 00:05:37;;;;;;;17.25;8.32;;;;;;;7.09;59.52;100185.94;4956419;28;115522;-70
2021/12/27 00:08:05;;;;;;;14.82;7.80;;;;;;;7.09;59.53;100185.94;4956491;28;114362;-68
2021/12/27 00:10:32;;;;;;;16.50;8.73;;;;;;;7.12;59.20;100183.19;4954253;28;123986;-68
2021/12/27 00:12:59;;;;;;;15.40;8.38;;;;;;;7.12;59.58;100185.81;4954821;28;124695;-68
2021/12/27 00:15:26;;;;;;;15.55;8.35;;;;;;;7.13;59.64;100178.78;4953882;28;114901;-68
2021/12/27 00:17:54;;;;;;;14.75;7.90;;;;;;;7.15;59.58;100190.09;4955390;28;114719;-68
2021/12/27 00:20:21;;;;;;;15.35;8.07;;;;;;;7.15;59.62;100182.19;4955134;28;123928;-69
2021/12/27 00:22:50;;;;;;;19.05;7.88;;;;;;;7.15;59.70;100177.78;4954660;28;123689;-68
2021/12/27 00:25:18;;;;;;;15.52;7.85;;;;;;;7.17;59.47;100175.94;4938527;28;113704;-68
2021/12/27 00:27:46;;;;;;;13.48;7.18;;;;;;;7.19;59.80;100174.09;4954809;28;113915;-68
2021/12/27 00:30:15;;;;;;;15.23;8.23;;;;;;;7.19;59.40;100168.81;4932844;28;123622;-68
2021/12/27 00:32:43;;;;;;;14.30;7.75;;;;;;;7.20;59.74;100175.81;4951054;28;123978;-68
2021/12/27 00:35:12;;;;;;;13.98;7.53;;;;;;;7.21;59.63;100172.28;4952110;28;114734;-68
2021/12/27 00:37:40;;;;;;;16.95;8.40;;;;;;;7.21;59.72;100174.91;4950298;28;113528;-68
2021/12/27 00:40:09;;;;;;;14.45;7.10;;;;;;;7.22;59.50;100173.97;4949760;28;122882;-68
2021/12/27 00:42:37;;;;;;;15.02;7.65;;;;;;;7.24;59.79;100173.91;4951174;28;123909;-69
2021/12/27 00:45:04;;;;;;;14.63;7.82;;;;;;;7.26;59.65;100168.59;4951760;28;114505;-68
2021/12/27 00:47:32;;;;;;;16.92;7.97;;;;;;;7.27;59.91;100165.00;4947464;28;112939;-68
2021/12/27 00:49:59;;;;;;;12.93;7.03;;;;;;;7.28;59.87;100166.75;4950801;28;124235;-68
2021/12/27 00:52:26;;;;;;;15.60;7.90;;;;;;;7.27;59.55;100159.75;4949609;28;124618;-68
2021/12/27 00:54:53;;;;;;;15.82;7.78;;;;;;;7.27;59.65;100159.75;4949013;28;114323;-68
2021/12/27 00:57:20;;;;;;;14.35;7.32;;;;;;;7.28;59.94;100161.47;4950689;28;113145;-68
2021/12/27 00:59:48;;;;;;;13.98;7.32;;;;;;;7.27;59.82;100165.00;4948432;28;123320;-68
2021/12/27 01:02:15;;;;;;;15.70;7.63;;;;;;;7.27;59.82;100158.00;4951289;28;123775;-69
2021/12/27 01:04:42;;;;;;;14.18;7.47;;;;;;;7.28;59.86;100161.47;4948832;28;114070;-68
2021/12/27 01:07:09;;;;;;;14.77;7.47;;;;;;;7.29;59.71;100152.63;4951401;28;114885;-68
2021/12/27 01:12:32;;;;;;;14.23;7.28;;;;;;;7.32;59.76;100147.25;4948110;28;123696;-68
2021/12/27 01:17:37;;;;;;;16.42;7.95;;;;;;;7.32;59.76;100139.34;4949078;28;114076;-69
2021/12/27 01:20:07;;;;;;;14.98;7.55;;;;;;;7.32;59.85;100141.97;4950142;28;125519;-69
2021/12/27 01:22:34;;;;;;;14.43;7.28;;;;;;;7.32;59.63;100140.19;4934794;28;124109;-69
2021/12/27 01:25:03;;;;;;;13.82;7.43;;;;;;;7.32;59.92;100131.44;4949986;28;113583;-70
2021/12/27 01:27:30;;;;;;;15.10;7.38;;;;;;;7.32;59.95;100139.34;4950829;28;114646;-69
2021/12/27 01:29:57;;;;;;;15.60;7.40;;;;;;;7.33;59.82;100133.16;4949574;28;124851;-70
2021/12/27 01:32:27;;;;;;;14.43;8.02;;;;;;;7.33;59.88;100133.16;4948407;28;124311;-69
2021/12/27 01:34:55;;;;;;;15.68;7.30;;;;;;;7.34;60.20;100135.72;4948808;28;112944;-68
2021/12/27 01:37:23;;;;;;;14.10;7.32;;;;;;;7.35;60.23;100131.31;4950751;28;113877;-68
2021/12/27 01:39:50;;;;;;;13.40;7.22;;;;;;;7.36;60.21;100136.50;4949837;28;124011;-69
2021/12/27 01:42:17;;;;;;;16.58;7.50;;;;;;;7.37;59.73;100134.75;4950197;28;123699;-69
2021/12/27 01:44:45;;;;;;;13.32;7.07;;;;;;;7.37;59.70;100129.47;4950649;28;114036;-69
2021/12/27 01:47:12;;;;;;;14.05;7.68;;;;;;;7.38;59.95;100120.63;4949126;28;113349;-69
2021/12/27 01:49:39;;;;;;;14.32;7.57;;;;;;;7.39;59.94;100122.34;4950089;28;124000;-69
2021/12/27 01:52:06;;;;;;;15.52;7.57;;;;;;;7.39;60.09;100123.22;4949830;28;123788;-69
2021/12/27 01:54:33;;;;;;;14.90;7.60;;;;;;;7.42;59.92;100127.47;4950109;28;114921;-69
2021/12/27 01:57:01;;;;;;;13.32;7.05;;;;;;;7.42;59.92;100122.22;4949444;28;114228;-70
2021/12/27 01:59:28;;;;;;;15.95;7.78;;;;;;;7.41;60.26;100125.78;4949692;28;123465;-70
2021/12/27 02:01:55;;;;;;;16.60;7.72;;;;;;;7.40;60.03;100129.31;4950112;28;123572;-69
2021/12/27 02:04:22;;;;;;;14.68;7.38;;;;;;;7.40;60.18;100129.31;4949206;28;114633;-69
2021/12/27 02:06:49;;;;;;;12.82;7.32;;;;;;;7.40;59.90;100124.06;4948635;28;113218;-69
2021/12/27 02:09:20;;;;;;;13.38;7.07;;;;;;;7.42;60.38;100116.94;4949613;28;124793;-69
2021/12/27 02:11:50;;;;;;;13.45;7.00;;;;;;;7.42;59.87;100122.22;4948196;28;123385;-69
2021/12/27 02:14:17;;;;;;;16.33;7.97;;;;;;;7.44;60.17;100119.50;4945084;28;113310;-69
2021/12/27 02:16:45;;;;;;;15.85;7.63;;;;;;;7.44;60.04;100125.66;4943297;28;114253;-69
2021/12/27 02:19:12;;;;;;;13.57;7.35;;;;;;;7.44;60.03;100115.13;4948231;28;123785;-69
2021/12/27 02:21:39;;;;;;;16.05;7.65;;;;;;;7.45;60.23;100111.53;4947160;28;123246;-69
2021/12/27 02:24:08;;;;;;;14.77;7.72;;;;;;;7.44;60.17;100115.13;4950017;28;114528;-69
2021/12/27 02:26:35;;;;;;;13.55;7.43;;;;;;;7.44;60.25;100115.13;4948588;28;114238;-70
2021/12/27 02:29:02;;;;;;;16.27;8.32;;;;;;;7.44;60.12;100114.25;4949794;28;124414;-69
2021/12/27 02:31:32;;;;;;;15.85;8.40;;;;;;;7.45;60.28;100111.53;4932072;28;124649;-69
2021/12/27 02:33:59;;;;;;;14.88;7.50;;;;;;;7.45;60.25;100106.28;4949850;28;114238;-69
2021/12/27 02:36:26;;;;;;;15.50;7.78;;;;;;;7.46;60.33;100102.72;4950057;28;113837;-69
2021/12/27 02:38:53;;;;;;;15.88;7.68;;;;;;;7.48;60.45;100111.41;4949335;28;125153;-70
2021/12/27 02:41:20;;;;;;;14.80;7.72;;;;;;;7.47;60.49;100109.69;4949336;28;124770;-69
2021/12/27 02:43:49;;;;;;;15.30;7.43;;;;;;;7.47;60.68;100109.69;4949335;28;115764;-69
2021/12/27 02:46:17;;;;;;;14.52;7.53;;;;;;;7.48;60.35;100111.41;4949404;28;96870;-69
2021/12/27 02:48:47;;;;;;;15.10;8.23;;;;;;;7.49;60.50;100099.09;4931614;28;123792;-69
2021/12/27 02:51:17;;;;;;;14.55;7.65;;;;;;;7.49;60.48;100092.03;4945099;28;123470;-69
2021/12/27 02:53:49;;;;;;;15.10;7.45;;;;;;;7.53;60.49;100098.88;4948763;28;113970;-69
2021/12/27 02:56:17;;;;;;;16.02;8.02;;;;;;;7.53;60.69;100104.16;4948546;28;114413;-69
2021/12/27 02:58:46;;;;;;;12.82;7.43;;;;;;;7.55;60.77;100089.16;4942745;28;122481;-69
2021/12/27 03:01:21;;;;;;;14.20;7.55;;;;;;;7.57;60.84;100089.94;4947962;28;122845;-69
2021/12/27 03:03:49;;;;;;;15.60;8.15;;;;;;;7.58;60.53;100090.78;4948673;28;113977;-69
2021/12/27 03:06:17;;;;;;;15.43;7.97;;;;;;;7.58;60.54;100091.63;4949807;28;114050;-69
2021/12/27 03:08:46;;;;;;;14.73;7.90;;;;;;;7.60;60.58;100089.78;4930691;28;123518;-70
2021/12/27 03:11:13;;;;;;;16.20;8.32;;;;;;;7.60;60.45;100079.25;4948575;28;123669;-69
2021/12/27 03:13:47;;;;;;;16.02;7.97;;;;;;;7.62;60.96;100080.97;4948799;28;114661;-69
2021/12/27 03:16:17;;;;;;;16.80;8.02;;;;;;;7.62;60.88;100073.91;4943474;28;113835;-69
2021/12/27 03:18:48;;;;;;;18.60;8.73;;;;;;;7.65;60.54;100075.53;4936542;28;123402;-69
2021/12/27 03:21:16;;;;;;;17.63;9.05;;;;;;;7.67;60.71;100073.72;4945632;28;124037;-69
2021/12/27 03:23:46;;;;;;;15.25;8.68;;;;;;;7.68;60.83;100075.41;4949021;28;114115;-69
2021/12/27 03:26:14;;;;;;;17.50;9.20;;;;;;;7.70;60.62;100073.56;4948478;28;113005;-69
2021/12/27 03:28:42;;;;;;;16.42;9.43;;;;;;;7.70;60.85;100068.28;4948838;28;124216;-69
2021/12/27 03:31:10;;;;;;;16.92;9.32;;;;;;;7.70;60.42;100058.59;4947352;28;124856;-69
2021/12/27 03:33:38;;;;;;;17.35;8.65;;;;;;;7.71;60.89;100070.00;4948745;28;115009;-69
2021/12/27 03:36:08;;;;;;;17.77;9.73;;;;;;;7.71;60.90;100064.75;4948763;28;115166;-69
2021/12/27 03:38:45;;;;;;;15.40;8.35;;;;;;;7.72;60.95;100071.69;4948501;28;124576;-69
2021/12/27 03:41:16;;;;;;;16.08;8.75;;;;;;;7.74;60.98;100069.84;4929163;28;123284;-69
2021/12/27 03:43:43;;;;;;;16.10;8.38;;;;;;;7.74;60.80;100075.13;4937514;28;114032;-69
2021/12/27 03:46:11;;;;;;;17.15;8.60;;;;;;;7.76;60.75;100073.25;4942745;28;113315;-69
2021/12/27 03:48:38;;;;;;;17.33;9.25;;;;;;;7.75;61.18;100071.56;4947548;28;124030;-69
2021/12/27 03:51:06;;;;;;;16.08;8.90;;;;;;;7.78;60.91;100066.16;4948600;28;125062;-69
2021/12/27 03:53:34;;;;;;;17.40;8.80;;;;;;;7.80;61.13;100064.31;4947338;28;113226;-69
2021/12/27 03:56:03;;;;;;;17.98;8.98;;;;;;;7.83;61.27;100072.06;4947505;28;113065;-69
2021/12/27 03:58:34;;;;;;;16.05;8.45;;;;;;;7.84;61.11;100055.34;4946864;28;125018;-69
2021/12/27 04:03:31;;;;;;;19.52;8.43;;;;;;;7.86;60.91;100048.22;4948627;28;114573;-69
2021/12/27 04:05:58;;;;;;;16.95;8.80;;;;;;;7.86;60.85;100045.56;4950061;28;113726;-69
2021/12/27 04:08:26;;;;;;;16.10;8.43;;;;;;;7.87;61.13;100044.63;4950138;28;123972;-69
2021/12/27 04:10:54;;;;;;;17.10;8.57;;;;;;;7.86;60.94;100037.66;4950422;28;123744;-69
2021/12/27 04:13:22;;;;;;;15.65;8.63;;;;;;;7.88;61.12;100034.97;4937116;28;114546;-69
2021/12/27 04:15:51;;;;;;;16.05;8.02;;;;;;;7.88;60.83;100030.53;4952128;28;113772;-69
2021/12/27 04:18:19;;;;;;;14.32;8.18;;;;;;;7.88;61.26;100041.06;4951346;28;123779;-69
2021/12/27 04:20:46;;;;;;;16.33;8.40;;;;;;;7.89;61.11;100032.25;4951397;28;125010;-69
2021/12/27 04:23:14;;;;;;;17.33;8.82;;;;;;;7.89;60.94;100034.91;4951144;28;115152;-69
2021/12/27 04:25:43;;;;;;;14.80;8.27;;;;;;;7.89;60.90;100026.09;4952060;28;114838;-69
2021/12/27 04:28:10;;;;;;;16.45;8.93;;;;;;;7.90;61.04;100031.31;4951496;28;123777;-69
2021/12/27 04:30:38;;;;;;;13.93;7.45;;;;;;;7.91;61.26;100025.13;4949568;28;123955;-69
2021/12/27 04:33:05;;;;;;;15.52;8.40;;;;;;;7.92;61.44;100025.97;4942236;28;113315;-69
2021/12/27 04:35:32;;;;;;;15.95;8.23;;;;;;;7.93;61.42;100020.63;4949805;28;114579;-70
2021/12/27 04:38:00;;;;;;;14.30;7.88;;;;;;;7.95;61.29;100021.41;4951465;28;123772;-69
2021/12/27 04:40:30;;;;;;;13.57;7.88;;;;;;;7.96;61.34;100022.25;4951701;28;124311;-69
2021/12/27 04:43:03;;;;;;;12.98;7.65;;;;;;;7.96;61.46;100017.84;4950276;28;113826;-69
2021/12/27 04:45:31;;;;;;;15.73;8.50;;;;;;;7.98;61.48;100015.97;4952932;28;116299;-70
2021/12/27 04:47:58;;;;;;;13.35;7.93;;;;;;;7.99;61.40;100014.22;4950934;28;124630;-69
2021/12/27 04:50:25;;;;;;;16.20;8.02;;;;;;;7.99;61.35;100001.88;4947806;28;124840;-69
2021/12/27 04:52:53;;;;;;;15.98;8.18;;;;;;;8.01;61.38;100003.59;4932024;28;115164;-69
2021/12/27 04:55:26;;;;;;;14.77;7.65;;;;;;;8.01;61.19;99999.16;4949699;28;113776;-70
2021/12/27 04:57:53;;;;;;;14.90;7.80;;;;;;;8.03;61.41;100001.75;4951238;28;124151;-69
2021/12/27 05:00:21;;;;;;;16.38;7.85;;;;;;;8.03;61.32;100001.75;4950903;28;123763;-69
2021/12/27 05:02:48;;;;;;;13.38;7.90;;;;;;;8.05;61.38;99994.59;4950981;28;114078;-67
2021/12/27 05:05:15;;;;;;;17.52;8.35;;;;;;;8.07;61.31;99998.88;4938936;28;113226;-67
2021/12/27 05:07:44;;;;;;;15.43;8.43;;;;;;;8.09;61.41;99998.78;4950995;28;124656;-68
2021/12/27 05:10:12;;;;;;;15.07;8.38;;;;;;;8.11;61.93;99989.88;4949102;28;122997;-67
2021/12/27 05:12:39;;;;;;;15.85;8.10;;;;;;;8.14;61.54;99991.53;4948422;28;116081;-68
2021/12/27 05:15:06;;;;;;;15.15;8.43;;;;;;;8.14;61.33;99988.88;4950521;28;114615;-68
2021/12/27 05:17:34;;;;;;;13.82;7.75;;;;;;;8.15;61.55;99990.59;4951115;28;124116;-69
2021/12/27 05:20:04;;;;;;;16.70;8.65;;;;;;;8.14;61.58;99988.88;4949259;28;125102;-69
2021/12/27 05:22:32;;;;;;;15.98;8.32;;;;;;;8.15;61.42;99985.31;4950174;28;112361;-68
2021/12/27 05:24:59;;;;;;;14.65;8.10;;;;;;;8.17;61.51;99988.72;4949678;28;113169;-69
2021/12/27 05:27:26;;;;;;;15.27;7.82;;;;;;;8.17;61.65;99988.72;4948822;28;123406;-68
2021/12/27 05:30:13;;;;;;;18.27;8.73;;;;;;;8.17;61.39;99988.72;4945268;28;124143;-68
2021/12/27 05:32:40;;;;;;;15.27;8.18;;;;;;;8.15;61.50;99980.03;4949661;28;113947;-69
2021/12/27 05:35:09;;;;;;;15.77;8.18;;;;;;;8.16;61.55;99987.03;4950685;28;113727;-69
2021/12/27 05:37:37;;;;;;;14.85;8.38;;;;;;;8.16;61.83;99981.75;4932383;28;123180;-69
2021/12/27 05:40:08;;;;;;;14.50;8.30;;;;;;;8.16;61.54;99976.47;4948573;28;123671;-69
2021/12/27 05:42:35;;;;;;;14.88;8.38;;;;;;;8.17;61.39;99978.16;4930509;28;114686;-69
2021/12/27 05:45:04;;;;;;;15.70;8.15;;;;;;;8.18;61.89;99979.91;4950665;28;114703;-69
2021/12/27 05:47:32;;;;;;;14.50;8.27;;;;;;;8.18;61.87;99977.25;4933052;28;123868;-69
2021/12/27 05:49:59;;;;;;;14.20;7.97;;;;;;;8.19;61.67;99976.31;4949815;28;122944;-69
2021/12/27 05:52:26;;;;;;;15.70;7.82;;;;;;;8.18;61.68;99966.69;4950552;28;113937;-69
2021/12/27 05:54:53;;;;;;;16.20;8.38;;;;;;;8.18;61.71;99969.34;4947780;28;113932;-69
2021/12/27 05:57:20;;;;;;;13.90;7.72;;;;;;;8.19;62.08;99971.03;4948297;28;123084;-69
2021/12/27 05:59:48;;;;;;;16.40;8.23;;;;;;;8.19;61.77;99961.34;4950218;28;124653;-69
2021/12/27 06:02:15;;;;;;;14.57;8.10;;;;;;;8.21;61.73;99963.91;4947800;28;114676;-69
2021/12/27 06:04:42;;;;;;;15.13;8.27;;;;;;;8.21;62.15;99974.44;4950588;28;114772;-69
2021/12/27 06:07:10;;;;;;;14.45;7.50;;;;;;;8.23;61.83;99983.16;4940824;28;123368;-69
2021/12/27 06:09:37;;;;;;;14.00;7.97;;;;;;;8.25;61.74;99976.03;4950459;28;124396;-69
2021/12/27 06:12:04;;;;;;;13.98;7.70;;;;;;;8.27;61.85;99974.16;4949015;28;114078;-69
2021/12/27 06:14:32;;;;;;;14.50;7.25;;;;;;;8.30;62.07;99970.50;4949482;28;114114;-69
2021/12/27 06:16:59;;;;;;;14.13;7.18;;;;;;;8.31;61.86;99974.88;4948834;28;123582;-69
2021/12/27 06:19:26;;;;;;;13.40;7.15;;;;;;;8.32;62.04;99969.50;4949120;28;123169;-69
2021/12/27 06:21:53;;;;;;;11.85;6.72;;;;;;;8.33;61.88;99968.56;4943531;28;114117;-70
2021/12/27 06:24:21;;;;;;;13.05;7.13;;;;;;;8.35;62.14;99973.78;4950038;28;114112;-69
2021/12/27 06:26:48;;;;;;;12.88;7.10;;;;;;;8.36;62.23;99973.72;4948444;28;123673;-69
2021/12/27 06:29:16;;;;;;;13.25;7.00;;;;;;;8.36;62.19;99971.06;4940462;28;122873;-69
2021/12/27 06:31:43;;;;;;;12.77;6.95;;;;;;;8.38;62.09;99971.84;4949593;28;114286;-69
2021/12/27 06:34:10;;;;;;;13.27;7.10;;;;;;;8.41;62.12;99975.25;4949772;28;113169;-69
2021/12/27 06:36:37;;;;;;;12.18;6.97;;;;;;;8.44;62.01;99975.13;4948643;28;123974;-69
2021/12/27 06:39:04;;;;;;;14.52;7.50;;;;;;;8.46;61.97;99973.28;4948286;28;123727;-69
2021/12/27 06:41:32;;;;;;;14.60;7.18;;;;;;;8.47;62.13;99970.53;4949558;28;114176;-69
2021/12/27 06:43:59;;;;;;;11.77;6.63;;;;;;;8.49;62.29;99967.84;4948841;28;113494;-69
2021/12/27 06:46:27;;;;;;;13.27;7.35;;;;;;;8.51;62.33;99965.97;4948503;28;125051;-69
2021/12/27 06:48:54;;;;;;;11.05;6.38;;;;;;;8.54;61.96;99971.09;4946066;28;122996;-69
2021/12/27 06:51:21;;;;;;;13.93;7.03;;;;;;;8.54;62.07;99966.66;4948370;28;114838;-69
2021/12/27 06:53:48;;;;;;;12.50;7.07;;;;;;;8.55;61.98;99967.50;4933371;28;114661;-69
2021/12/27 06:56:16;;;;;;;13.10;7.13;;;;;;;8.58;62.25;99967.38;4949641;28;123929;-69
2021/12/27 06:58:43;;;;;;;13.50;7.00;;;;;;;8.60;62.07;99969.94;4931326;28;123900;-69
2021/12/27 07:01:10;;;;;;;11.48;6.57;;;;;;;8.62;62.34;99966.28;4947467;28;113879;-69
2021/12/27 07:03:37;;;;;;;13.43;6.85;;;;;;;8.63;62.04;99960.06;4949752;28;114050;-69
2021/12/27 07:06:04;;;;;;;11.70;6.88;;;;;;;8.66;62.03;99957.25;4949422;28;123781;-69
2021/12/27 07:08:32;;;;;;;13.90;7.03;;;;;;;8.68;62.28;99958.06;4949402;28;124583;-69
2021/12/27 07:10:59;;;;;;;12.98;6.38;;;;;;;8.71;62.35;99952.59;4949086;28;114533;-69
2021/12/27 07:13:26;;;;;;;12.77;6.70;;;;;;;8.72;62.38;99959.63;4949844;28;113018;-69
2021/12/27 07:15:53;;;;;;;13.70;7.45;;;;;;;8.76;62.29;99960.31;4946494;28;123285;-69
2021/12/27 07:18:23;;;;;;;12.90;6.85;;;;;;;8.77;61.86;99962.84;4949116;28;123739;-69
2021/12/27 07:20:51;;;;;;;12.85;6.32;;;;;;;8.81;62.01;99960.06;4928136;28;113799;-69
2021/12/27 07:23:19;;;;;;;13.05;6.45;;;;;;;8.82;62.02;99959.13;4949053;28;114315;-69
2021/12/27 07:25:47;;;;;;;11.45;6.25;;;;;;;8.83;62.12;99961.66;4949029;28;124262;-69
2021/12/27 07:28:14;;;;;;;12.60;6.55;;;;;;;8.83;62.00;99952.91;4931712;28;123449;-69
2021/12/27 07:30:42;;;;;;;11.93;6.57;;;;;;;8.84;62.02;99957.28;4947777;28;114093;-69
2021/12/27 07:33:09;;;;;;;12.23;6.68;;;;;;;8.85;62.04;99958.97;4949236;28;113972;-68
2021/12/27 07:35:36;;;;;;;11.15;5.85;;;;;;;8.86;62.24;99955.41;4949305;28;124222;-69
2021/12/27 07:38:04;;;;;;;12.55;6.25;;;;;;;8.87;62.27;99954.44;4931893;28;124108;-68
2021/12/27 07:40:31;;;;;;;13.65;6.57;;;;;;;8.88;61.98;99953.53;4947494;28;115465;-68
2021/12/27 07:42:58;;;;;;;12.40;6.43;;;;;;;8.89;62.03;99939.38;4951790;28;114795;-68
2021/12/27 07:45:26;;;;;;;11.15;6.05;;;;;;;8.90;62.20;99941.09;4933670;28;123346;-69
2021/12/27 07:47:53;;;;;;;13.18;6.38;;;;;;;8.91;61.99;99937.50;4951642;28;123946;-69
2021/12/27 07:50:20;;;;;;;11.50;5.93;;;;;;;8.92;62.16;99941.88;4948669;28;114294;-69
2021/12/27 07:52:50;;;;;;;10.75;5.78;;;;;;;8.92;62.16;99939.22;4951174;28;113589;-70
2021/12/27 07:55:18;;;;;;;10.35;6.05;;;;;;;8.91;62.03;99938.38;4951424;28;122962;-69
2021/12/27 07:57:46;;;;;;;9.75;6.00;;;;;;;8.92;62.18;99941.88;4952674;28;123579;-69
2021/12/27 08:00:14;;;;;;;10.68;5.55;;;;;;;8.92;62.06;99940.06;4949846;28;114228;-69
2021/12/27 08:02:42;;;;;;;10.50;5.20;;;;;;;8.93;62.29;99939.16;4952625;28;114701;-69
2021/12/27 08:05:09;;;;;;;11.55;6.18;;;;;;;8.93;62.05;99920.66;4934750;28;123851;-68
2021/12/27 08:07:37;;;;;;;12.45;6.63;;;;;;;8.95;62.07;99928.50;4949737;28;123439;-69
2021/12/27 08:10:05;;;;;;;11.43;5.75;;;;;;;8.95;62.12;99933.78;4952464;28;114477;-69
2021/12/27 08:12:32;;;;;;;12.90;6.15;;;;;;;8.96;62.39;99930.19;4949027;28;114593;-69
2021/12/27 08:14:59;;;;;;;12.48;6.57;;;;;;;8.96;62.34;99935.47;4950286;28;123752;-70
2021/12/27 08:17:27;;;;;;;10.50;6.13;;;;;;;8.96;62.28;99930.19;4935828;28;125164;-69
2021/12/27 08:19:54;;;;;;;11.45;6.32;;;;;;;8.96;62.25;99936.31;4953871;28;114141;-69
2021/12/27 08:22:21;;;;;;;12.23;6.03;;;;;;;8.97;62.02;99931.91;4955261;28;115035;-70
2021/12/27 08:24:49;;;;;;;10.07;5.97;;;;;;;8.98;62.16;99938.03;4962025;28;124056;-68
2021/12/27 08:27:18;;;;;;;11.57;6.32;;;;;;;8.99;62.09;99935.31;4951896;28;123291;-69
2021/12/27 08:29:46;;;;;;;10.50;6.22;;;;;;;9.01;62.34;99943.19;4951373;28;114409;-68
2021/12/27 08:32:13;;;;;;;10.88;6.25;;;;;;;9.01;62.12;99944.03;4952775;28;115473;-69
2021/12/27 08:34:41;;;;;;;10.55;5.95;;;;;;;9.03;62.31;99952.72;4952098;28;123714;-68
2021/12/27 08:37:08;;;;;;;11.63;6.30;;;;;;;9.04;62.03;99935.06;4950346;28;122997;-69
2021/12/27 08:39:35;;;;;;;11.73;6.32;;;;;;;9.04;62.14;99937.72;4950971;28;112321;-69
2021/12/27 08:42:07;;;;;;;11.95;6.15;;;;;;;9.03;62.35;99931.59;4951052;28;113228;-69
2021/12/27 08:44:35;;;;;;;10.25;5.97;;;;;;;9.02;62.36;99929.88;4951832;28;124160;-69
2021/12/27 08:47:03;;;;;;;11.27;6.20;;;;;;;9.03;62.07;99936.03;4952520;28;123931;-69
2021/12/27 08:49:30;;;;;;;13.38;6.15;;;;;;;9.04;62.24;99933.31;4934635;28;113160;-68
2021/12/27 08:51:57;;;;;;;11.77;6.15;;;;;;;9.05;62.37;99929.72;4951651;28;113767;-69
2021/12/27 08:54:24;;;;;;;10.80;5.80;;;;;;;9.06;62.38;99936.72;4951692;28;123674;-69
2021/12/27 08:56:51;;;;;;;10.77;5.75;;;;;;;9.07;62.21;99932.28;4950515;28;122593;-70
2021/12/27 08:59:19;;;;;;;12.00;6.18;;;;;;;9.09;62.36;99930.41;4952744;28;113845;-69
2021/12/27 09:01:46;;;;;;;9.40;5.93;;;;;;;9.10;62.21;99932.97;4952437;28;113932;-69
2021/12/27 09:04:13;;;;;;;12.63;5.70;;;;;;;9.11;62.20;99939.94;4934360;28;124026;-69
2021/12/27 09:06:41;;;;;;;11.82;6.03;;;;;;;9.10;62.37;99932.97;4951382;28;124536;-69
2021/12/27 09:09:08;;;;;;;11.45;5.95;;;;;;;9.10;62.29;99932.97;4952476;28;114279;-70
2021/12/27 09:11:35;;;;;;;10.50;5.57;;;;;;;9.12;62.51;99931.09;4952335;28;113766;-69
2021/12/27 09:14:02;;;;;;;12.38;6.60;;;;;;;9.13;62.43;99922.22;4951839;28;125146;-69
2021/12/27 09:16:43;;;;;;;10.15;5.50;;;;;;;9.14;62.42;99913.38;4950013;28;123867;-69
2021/12/27 09:19:11;;;;;;;11.50;6.00;;;;;;;9.17;62.29;99912.34;4951736;28;115466;-70
2021/12/27 09:21:38;;;;;;;11.00;5.82;;;;;;;9.19;62.50;99914.91;4950214;28;114461;-69
2021/12/27 09:24:06;;;;;;;10.43;5.60;;;;;;;9.21;62.50;99916.56;4951057;28;124268;-69
2021/12/27 09:26:35;;;;;;;12.00;5.68;;;;;;;9.23;62.27;99903.22;4937618;28;121985;-69
2021/12/27 09:29:03;;;;;;;10.35;5.63;;;;;;;9.26;62.51;99905.72;4954976;28;114426;-69
2021/12/27 09:31:30;;;;;;;11.13;5.72;;;;;;;9.28;62.24;99902.03;4951315;28;114036;-69
2021/12/27 09:33:57;;;;;;;10.90;5.70;;;;;;;9.29;62.29;99906.41;4952016;28;124480;-69
2021/12/27 09:36:24;;;;;;;10.55;5.95;;;;;;;9.30;62.42;99902.81;4953421;28;124694;-69
2021/12/27 09:38:52;;;;;;;11.00;5.95;;;;;;;9.32;62.19;99905.38;4959123;28;114032;-69
2021/12/27 09:41:25;;;;;;;10.32;5.78;;;;;;;9.32;62.22;99900.09;4956903;28;114168;-69
2021/12/27 09:43:54;;;;;;;10.75;5.68;;;;;;;9.32;62.33;99905.38;4960475;28;123063;-69
2021/12/27 09:46:22;;;;;;;10.00;5.40;;;;;;;9.32;62.60;99908.00;4963916;28;124144;-69
2021/12/27 09:48:52;;;;;;;10.30;5.55;;;;;;;9.33;62.25;99907.94;4944119;28;112901;-69
2021/12/27 09:51:19;;;;;;;11.63;5.88;;;;;;;9.37;62.30;99908.63;4948638;28;112275;-69
2021/12/27 09:53:48;;;;;;;12.75;6.95;;;;;;;9.39;62.41;99912.03;4960146;28;122971;-69
2021/12/27 09:56:15;;;;;;;13.70;6.88;;;;;;;9.39;62.30;99917.31;4957023;28;124202;-69
2021/12/27 09:58:42;;;;;;;11.13;6.25;;;;;;;9.41;62.28;99915.44;4956559;28;114350;-69
2021/12/27 10:01:10;;;;;;;11.82;6.13;;;;;;;9.43;62.49;99916.19;4938813;28;114047;-70
2021/12/27 10:04:03;;;;;;;10.38;5.78;;;;;;;9.45;62.22;99905.56;4955237;28;123869;-68
2021/12/27 10:06:31;;;;;;;10.65;5.65;;;;;;;9.46;62.40;99892.25;4950558;28;122746;-68
2021/12/27 10:09:01;;;;;;;9.38;5.57;;;;;;;9.47;62.26;99893.94;4940272;28;114283;-69
2021/12/27 10:11:31;;;;;;;8.70;5.43;;;;;;;9.48;62.37;99887.75;4951901;28;114555;-69
2021/12/27 10:14:11;;;;;;;9.63;5.30;;;;;;;9.52;62.34;99891.91;4950671;28;125831;-69
2021/12/27 10:16:47;;;;;;;10.20;5.57;;;;;;;9.54;62.66;99884.75;4945599;28;124541;-69
2021/12/27 10:19:17;;;;;;;10.77;5.55;;;;;;;9.58;62.58;99889.88;4949190;28;114262;-69
2021/12/27 10:21:48;;;;;;;9.35;5.13;;;;;;;9.64;62.77;99889.50;4943119;28;112272;-68
2021/12/27 10:24:18;;;;;;;11.00;5.47;;;;;;;9.67;62.53;99878.78;4941634;28;123021;-68
2021/12/27 10:26:49;;;;;;;10.80;5.57;;;;;;;9.71;62.57;99875.00;4949638;28;123621;-69
2021/12/27 10:29:22;;;;;;;9.63;4.90;;;;;;;9.75;62.69;99863.31;4951324;28;114498;-70
2021/12/27 10:31:50;;;;;;;9.80;5.28;;;;;;;9.80;62.60;99863.91;4948604;28;114011;-69
2021/12/27 10:34:18;;;;;;;9.45;5.10;;;;;;;9.85;62.49;99866.28;4949427;28;123995;-69
2021/12/27 10:37:04;;;;;;;9.65;5.32;;;;;;;9.88;62.41;99866.94;4950659;28;122811;-69
2021/12/27 10:40:07;;;;;;;10.68;6.00;;;;;;;9.89;62.31;99849.31;4951960;28;114170;-68
2021/12/27 10:42:43;;;;;;;11.27;5.68;;;;;;;9.91;62.51;99835.03;4947732;28;112895;-69
2021/12/27 10:45:19;;;;;;;9.60;5.55;;;;;;;9.94;62.44;99824.31;4950448;28;124410;-69
2021/12/27 10:47:50;;;;;;;8.75;5.15;;;;;;;10.00;62.67;99819.56;4949437;28;122668;-69
2021/12/27 10:50:23;;;;;;;11.07;5.57;;;;;;;10.03;62.27;99822.03;4931179;28;114400;-69
2021/12/27 10:53:07;;;;;;;9.38;5.57;;;;;;;10.08;62.41;99835.84;4934702;28;113669;-69
2021/12/27 10:55:43;;;;;;;10.07;5.43;;;;;;;10.12;62.35;99842.66;4950837;28;125128;-69
2021/12/27 10:58:25;;;;;;;9.23;5.05;;;;;;;10.13;62.67;99839.94;4930500;28;123969;-69
2021/12/27 11:01:04;;;;;;;7.95;5.13;;;;;;;10.17;62.51;99848.53;4930211;28;115603;-69
2021/12/27 11:03:42;;;;;;;9.10;5.63;;;;;;;10.18;62.51;99849.38;4949549;28;115618;-69
2021/12/27 11:06:12;;;;;;;9.57;5.38;;;;;;;10.19;62.32;99849.31;4947802;28;123968;-69
2021/12/27 11:08:45;;;;;;;10.05;5.07;;;;;;;10.21;62.21;99852.69;4950247;28;123859;-69
2021/12/27 11:11:14;;;;;;;8.68;5.35;;;;;;;10.22;62.52;99848.25;4946630;28;114196;-69
2021/12/27 11:13:43;;;;;;;8.85;5.18;;;;;;;10.23;62.38;99834.94;4950513;28;113887;-70
2021/12/27 11:16:10;;;;;;;8.38;4.85;;;;;;;10.26;62.33;99842.66;4933775;28;123008;-69
2021/12/27 11:18:38;;;;;;;10.07;5.40;;;;;;;10.30;62.32;99836.31;4950566;28;123061;-69
2021/12/27 11:21:31;;;;;;;9.45;5.47;;;;;;;10.35;62.48;99837.81;4934393;28;114789;-69
2021/12/27 11:24:00;;;;;;;9.40;5.00;;;;;;;10.40;62.51;99841.06;4951351;28;114248;-68
2021/12/27 11:26:33;;;;;;;10.35;5.47;;;;;;;10.45;62.40;99844.25;4950361;28;124177;-69
2021/12/27 11:29:14;;;;;;;9.60;4.57;;;;;;;10.49;62.30;99837.81;4946359;28;123925;-69
2021/12/27 11:31:43;;;;;;;9.55;4.93;;;;;;;10.53;61.99;99839.34;4930200;28;115174;-69
2021/12/27 11:34:13;;;;;;;9.02;5.05;;;;;;;10.56;62.35;99825.06;4951167;28;114444;-69
2021/12/27 11:36:47;;;;;;;9.35;4.65;;;;;;;10.61;62.33;99818.53;4947939;28;123832;-69